PAKTCZST

Guest
Details From PAKT - KETCHIKAN INTL
To CZST - STEWART
Flight Number -
Tags generated
Created
Modified
Stats Distance 83 nm / 153 km
Max Altitude 2,900 ft / 884 m
Waypoints 3
Social Downloads 3
Likes 0
Share VATSIM

Download

Looking for another format? Having issues loading an existing format? Contact us
Advertisement - Login to hide

Notes

Basic altitude profile: - Ascent Rate: 1200ft/min - Ascent Speed: 180kts - Cruise Altitude: 15000ft - Cruise Speed: 220kts - Descent Rate: 1000ft/min - Descent Speed: 180kts

Route

PAKT GRAVI CZST

ID Type Via Altitude Latitude Longitude Leg Dist Tot Dist Heading (true) Name
O PAKT APT - 0 ft / 0 m 55.35554˚ -131.71374˚ - 0 nm - KETCHIKAN INTL
GRAVI FIX - 2,900 ft / 884 m 55.20375˚ -131.72597˚ 9 nm 9 nm 183° / 183° -
O CZST APT - 0 ft / 0 m 55.93542˚ -129.98403˚ 73 nm 82 nm 53° / 54° STEWART

Altitude Profile

Advertisement - Login to hide

PAKT

Details ICAO PAKT (KTN)
Name KETCHIKAN INTL
Region USA (Alaska)
Timezone Unknown (UTC+0.0)
Stats Elevation 88 ft / 27 m (AMSL)
Location 55.355545° -131.713737°
Runways 1
Magnetic Variation 18.536° E

METAR

PAKT 111453Z AUTO 15011KT 10SM CLR 13/00 A3004

Decode

TAF

TAF PAKT 111138Z 1112/1212 16012KT P6SM VCSH OVC120 WS020/14050KT TEMPO 1112/1115 16012G22KT -RA OVC050 FM111500 15012KT 3SM BR VCSH SCT008 SCT025 BKN110 WS020/15040KT FM112000 14014G24KT P6SM SCT015 BKN070 FM120700 15018G28KT P6SM BKN030 OVC050 AMD LTD TO CLD VIS AND WIND 1112/1115

Decode

Departure Runways

ID Width Length Bearing (true) Bearing (mag) Surface Threshold Offset Overrun Length
11 150 ft / 46 m 7,485 ft / 2,281 m 135.66° 117.12° Asphalt 0 ft / 0 m 200 ft / 61 m
29 150 ft / 46 m 7,485 ft / 2,281 m 315.68° 297.14° Asphalt 0 ft / 0 m 100 ft / 30 m

CZST

Details ICAO CZST
Name STEWART
Region Canada
Timezone America/Vancouver (UTC-8.0)
Stats Elevation 24 ft / 7 m (AMSL)
Location 55.935417° -129.984029°
Runways 1
Magnetic Variation 18.689° E

METAR

CZST 111500Z 00000KT 1/4SM FZFG VV004 M00/M00 A3023 RMK FG8 CLIMAT 2.1/-0.8/6.6 SLP238

Decode

TAF

Not found

Destination Runways

ID Width Length Bearing (true) Bearing (mag) Surface Threshold Offset Overrun Length
18 75 ft / 23 m 3,873 ft / 1,180 m 194.43° 175.74° Asphalt 0 ft / 0 m 0 ft / 0 m
36 75 ft / 23 m 3,873 ft / 1,180 m 14.42° 355.73° Asphalt 0 ft / 0 m 0 ft / 0 m

Popular Alternatives